createdAt,value
2023-01-20T00:02:26.609Z,98449.56
2023-01-20T00:04:53.340Z,98451.22
2023-01-20T00:07:20.102Z,98452.84
2023-01-20T00:09:46.862Z,98462.97
2023-01-20T00:12:13.751Z,98473.03
2023-01-20T00:14:40.490Z,98467.94
2023-01-20T00:17:07.241Z,98486.47
2023-01-20T00:19:33.984Z,98488.94
2023-01-20T00:22:00.770Z,98493.97
2023-01-20T00:24:27.570Z,98498.19
2023-01-20T00:26:54.404Z,98496.44
2023-01-20T00:29:21.197Z,98493.03
2023-01-20T00:31:47.927Z,98490.47
2023-01-20T00:34:14.741Z,98481.09
2023-01-20T00:36:41.470Z,98470.09
2023-01-20T00:39:08.208Z,98465.84
2023-01-20T00:41:35.111Z,98479.34
2023-01-20T00:44:01.827Z,98491.94
2023-01-20T00:46:28.679Z,98497.78
2023-01-20T00:48:55.511Z,98503.69
2023-01-20T00:51:22.198Z,98494.28
2023-01-20T00:53:48.976Z,98490.06
2023-01-20T00:56:15.715Z,98495.94
2023-01-20T00:58:42.983Z,98499.25
2023-01-20T01:01:09.977Z,98492.47
2023-01-20T01:03:36.840Z,98478.91
2023-01-20T01:06:10.916Z,98474.69
2023-01-20T01:08:37.705Z,98481.38
2023-01-20T01:11:04.631Z,98488.09
2023-01-20T01:13:31.657Z,98494.81
2023-01-20T01:15:58.468Z,98495.63
2023-01-20T01:18:25.472Z,98486.31
2023-01-20T01:20:52.185Z,98482.88
2023-01-20T01:23:18.931Z,98481.19
2023-01-20T01:25:45.691Z,98480.28
2023-01-20T01:28:12.434Z,98479.44
2023-01-20T01:30:39.278Z,98474.34
2023-01-20T01:33:06.061Z,98463.31
2023-01-20T01:35:32.868Z,98464.09
2023-01-20T01:37:59.605Z,98471.66
2023-01-20T01:40:26.422Z,98469.97
2023-01-20T01:42:53.213Z,98469.91
2023-01-20T01:45:24.283Z,98462.28
2023-01-20T01:47:53.584Z,98459.72
2023-01-20T01:50:21.420Z,98474.00
2023-01-20T01:52:49.035Z,98469.75
2023-01-20T01:55:16.109Z,98477.31
2023-01-20T01:57:42.973Z,98463.75
2023-01-20T02:00:10.157Z,98468.78
2023-01-20T02:02:40.003Z,98479.75
2023-01-20T02:05:06.971Z,98478.84
2023-01-20T02:07:33.891Z,98484.75
2023-01-20T02:10:00.701Z,98482.97
2023-01-20T02:12:27.509Z,98491.41
2023-01-20T02:14:54.713Z,98503.16
2023-01-20T02:17:27.575Z,98491.34
2023-01-20T02:20:03.227Z,98502.28
2023-01-20T02:22:29.939Z,98489.53
2023-01-20T02:24:59.822Z,98492.06
2023-01-20T02:27:29.618Z,98499.63
2023-01-20T02:30:05.664Z,98493.72
2023-01-20T02:32:52.736Z,98498.72
2023-01-20T02:35:24.556Z,98498.69
2023-01-20T02:37:51.309Z,98507.09
2023-01-20T02:40:36.854Z,98505.38
2023-01-20T02:43:08.886Z,98511.25
2023-01-20T02:45:35.695Z,98512.94
2023-01-20T02:48:22.707Z,98509.50
2023-01-20T02:50:55.284Z,98502.75
2023-01-20T02:53:22.132Z,98501.00
2023-01-20T02:55:49.018Z,98505.22
2023-01-20T02:58:38.179Z,98505.19
2023-01-20T03:01:10.614Z,98500.13
2023-01-20T03:03:38.226Z,98493.34
2023-01-20T03:06:07.124Z,98484.94
2023-01-20T03:08:33.900Z,98491.66
2023-01-20T03:11:07.117Z,98488.25
2023-01-20T03:13:45.990Z,98491.63
2023-01-20T03:16:14.635Z,98479.81
2023-01-20T03:18:41.372Z,98476.38
2023-01-20T03:21:08.521Z,98488.16
2023-01-20T03:23:36.043Z,98494.91
2023-01-20T03:26:07.886Z,98484.75
2023-01-20T03:28:34.675Z,98486.38
2023-01-20T03:31:01.540Z,98488.06
2023-01-20T03:33:28.350Z,98485.50
2023-01-20T03:35:55.130Z,98482.94
2023-01-20T03:38:21.915Z,98480.41
2023-01-20T03:40:50.727Z,98480.38
2023-01-20T03:43:20.338Z,98481.19
2023-01-20T03:45:50.216Z,98484.53
2023-01-20T03:48:18.221Z,98486.22
2023-01-20T03:50:55.419Z,98490.38
2023-01-20T03:53:25.278Z,98486.97
2023-01-20T03:55:53.591Z,98494.53
2023-01-20T03:58:25.172Z,98490.31
2023-01-20T04:00:52.008Z,98486.91
2023-01-20T04:03:19.967Z,98485.22
2023-01-20T04:05:46.786Z,98486.88
2023-01-20T04:08:13.971Z,98484.28
2023-01-20T04:10:41.304Z,98480.09
2023-01-20T04:13:08.089Z,98485.13
2023-01-20T04:15:35.730Z,98480.84
2023-01-20T04:18:34.699Z,98484.22
2023-01-20T04:21:02.127Z,98482.53
2023-01-20T04:23:35.062Z,98487.53
2023-01-20T04:26:01.836Z,98490.00
2023-01-20T04:28:28.699Z,98487.44
2023-01-20T04:30:55.523Z,98488.22
2023-01-20T04:33:22.309Z,98499.16
2023-01-20T04:35:49.089Z,98494.94
2023-01-20T04:38:15.893Z,98492.38
2023-01-20T04:40:42.705Z,98494.88
2023-01-20T04:43:10.446Z,98498.19
2023-01-20T04:45:37.214Z,98497.38
2023-01-20T04:48:07.583Z,98499.00
2023-01-20T04:50:37.729Z,98505.69
2023-01-20T04:53:04.507Z,98509.06
2023-01-20T04:55:32.210Z,98503.09
2023-01-20T04:57:58.984Z,98510.69
2023-01-20T05:00:25.676Z,98510.66
2023-01-20T05:02:52.621Z,98525.81
2023-01-20T05:05:19.514Z,98526.63
2023-01-20T05:07:46.221Z,98523.25
2023-01-20T05:10:13.306Z,98530.78
2023-01-20T05:12:41.427Z,98532.44
2023-01-20T05:15:08.537Z,98532.41
2023-01-20T05:17:35.307Z,98540.84
2023-01-20T05:20:02.135Z,98536.63
2023-01-20T05:22:29.631Z,98544.19
2023-01-20T05:24:56.447Z,98550.91
2023-01-20T05:27:23.163Z,98554.31
2023-01-20T05:29:49.955Z,98554.31
2023-01-20T05:32:16.786Z,98555.97
2023-01-20T05:34:43.624Z,98549.25
2023-01-20T05:37:10.421Z,98542.50
2023-01-20T05:39:37.313Z,98546.72
2023-01-20T05:42:04.091Z,98547.56
2023-01-20T05:44:31.061Z,98550.09
2023-01-20T05:46:57.812Z,98540.03
2023-01-20T05:49:24.620Z,98543.38
2023-01-20T05:51:51.437Z,98544.25
2023-01-20T05:54:18.240Z,98539.19
2023-01-20T05:56:45.070Z,98550.94
2023-01-20T05:59:11.799Z,98556.00
2023-01-20T06:01:38.661Z,98558.53
2023-01-20T06:07:00.029Z,98557.69
2023-01-20T06:09:36.359Z,98553.56
2023-01-20T06:12:07.857Z,98548.50
2023-01-20T06:15:08.953Z,98543.44
2023-01-20T06:17:35.700Z,98537.56
2023-01-20T06:20:02.594Z,98533.38
2023-01-20T06:22:30.850Z,98525.84
2023-01-20T06:24:57.572Z,98526.66
2023-01-20T06:27:24.440Z,98522.50
2023-01-20T06:29:51.202Z,98519.97
2023-01-20T06:32:17.876Z,98516.63
2023-01-20T06:34:46.103Z,98518.34
2023-01-20T06:37:12.790Z,98516.63
2023-01-20T06:39:40.534Z,98523.38
2023-01-20T06:42:07.250Z,98517.50
2023-01-20T06:44:36.729Z,98514.97
2023-01-20T06:47:03.445Z,98518.38
2023-01-20T06:49:30.397Z,98531.88
2023-01-20T06:51:57.147Z,98529.34
2023-01-20T06:54:23.996Z,98522.63
2023-01-20T06:56:50.688Z,98528.50
2023-01-20T06:59:17.407Z,98511.66
2023-01-20T07:01:44.198Z,98517.63
2023-01-20T07:04:13.233Z,98519.28
2023-01-20T07:06:40.186Z,98519.28
2023-01-20T07:09:07.506Z,98526.84
2023-01-20T07:11:35.951Z,98525.19
2023-01-20T07:14:04.190Z,98526.84
2023-01-20T07:16:31.098Z,98530.25
2023-01-20T07:18:58.073Z,98532.81
2023-01-20T07:21:26.542Z,98539.53
2023-01-20T07:23:53.519Z,98537.88
2023-01-20T07:26:21.229Z,98537.03
2023-01-20T07:28:47.992Z,98542.13
2023-01-20T07:31:18.856Z,98542.13
2023-01-20T07:33:45.684Z,98548.06
2023-01-20T07:36:12.601Z,98556.53
2023-01-20T07:38:39.333Z,98551.47
2023-01-20T07:41:06.955Z,98562.47
2023-01-20T07:43:33.783Z,98560.81
2023-01-20T07:46:01.141Z,98567.56
2023-01-20T07:48:28.562Z,98572.66
2023-01-20T07:51:02.855Z,98572.69
2023-01-20T07:53:30.000Z,98574.44
2023-01-20T07:55:56.757Z,98570.25
2023-01-20T07:58:23.500Z,98578.72
2023-01-20T08:00:50.233Z,98571.19
2023-01-20T08:03:17.027Z,98574.63
2023-01-20T08:05:43.772Z,98574.69
2023-01-20T08:08:10.540Z,98574.69
2023-01-20T08:10:37.337Z,98574.75
2023-01-20T08:13:04.171Z,98581.53
2023-01-20T08:15:30.910Z,98579.91
2023-01-20T08:17:58.708Z,98586.69
2023-01-20T08:20:26.728Z,98592.69
2023-01-20T08:22:53.711Z,98599.44
2023-01-20T08:25:20.467Z,98596.13
2023-01-20T08:27:48.151Z,98604.59
2023-01-20T08:30:14.999Z,98611.41
2023-01-20T08:32:41.724Z,98608.97
2023-01-20T08:35:08.661Z,98597.22
2023-01-20T08:37:38.585Z,98602.34
2023-01-20T08:40:09.833Z,98600.69
2023-01-20T08:42:37.102Z,98602.44
2023-01-20T08:45:04.630Z,98603.34
2023-01-20T08:47:31.422Z,98601.75
2023-01-20T08:49:58.104Z,98612.81
2023-01-20T08:52:25.051Z,98613.72
2023-01-20T08:54:53.099Z,98613.78
2023-01-20T08:57:19.865Z,98611.31
2023-01-20T08:59:47.459Z,98617.25
2023-01-20T09:02:14.334Z,98620.72
2023-01-20T09:04:41.129Z,98624.19
2023-01-20T09:07:08.345Z,98617.53
2023-01-20T09:09:36.561Z,98631.09
2023-01-20T09:12:04.170Z,98627.00
2023-01-20T09:14:30.859Z,98632.13
2023-01-20T09:16:57.599Z,98642.38
2023-01-20T09:19:24.343Z,98639.09
2023-01-20T09:21:51.194Z,98642.59
2023-01-20T09:24:17.902Z,98643.53
2023-01-20T09:26:45.504Z,98646.16
2023-01-20T09:29:13.185Z,98632.72
2023-01-20T09:31:49.009Z,98639.53
2023-01-20T09:34:21.804Z,98634.50
2023-01-20T09:36:57.417Z,98622.78
2023-01-20T09:39:43.030Z,98611.00
2023-01-20T09:42:34.927Z,98611.06
2023-01-20T09:45:27.816Z,98598.47
2023-01-20T09:48:01.136Z,98600.22
2023-01-20T09:50:46.854Z,98603.69
2023-01-20T09:53:32.868Z,98589.38
2023-01-20T09:56:01.253Z,98578.47
2023-01-20T09:58:49.029Z,98578.53
2023-01-20T10:01:20.025Z,98581.13
2023-01-20T10:03:56.303Z,98573.56
2023-01-20T10:15:28.010Z,98562.13
2023-01-20T10:18:06.829Z,98563.06
2023-01-20T10:20:35.832Z,98552.97
2023-01-20T10:23:11.152Z,98551.31
2023-01-20T10:25:48.191Z,98541.19
2023-01-20T10:28:15.947Z,98534.47
2023-01-20T10:30:42.746Z,98547.19
2023-01-20T10:33:10.703Z,98540.44
2023-01-20T10:35:38.398Z,98535.38
2023-01-20T10:38:09.126Z,98528.66
2023-01-20T10:40:43.624Z,98532.94
2023-01-20T10:43:11.647Z,98529.59
2023-01-20T10:45:44.757Z,98527.91
2023-01-20T10:48:30.556Z,98516.94
2023-01-20T10:50:57.476Z,98517.84
2023-01-20T10:53:34.186Z,98520.41
2023-01-20T10:56:37.002Z,98517.03
2023-01-20T10:59:30.133Z,98512.00
2023-01-20T11:02:10.895Z,98510.34
2023-01-20T11:04:39.065Z,98507.00
2023-01-20T11:07:10.390Z,98502.75
2023-01-20T11:09:37.971Z,98498.53
2023-01-20T11:12:07.001Z,98488.44
2023-01-20T11:14:34.039Z,98480.00
2023-01-20T11:17:02.719Z,98477.50
2023-01-20T11:19:44.391Z,98463.13
2023-01-20T11:22:12.375Z,98455.56
2023-01-20T11:24:43.126Z,98458.09
2023-01-20T11:27:20.640Z,98448.78
2023-01-20T11:30:00.553Z,98458.94
2023-01-20T11:32:28.825Z,98446.25
2023-01-20T11:34:56.072Z,98451.34
2023-01-20T11:37:25.759Z,98452.22
2023-01-20T11:39:55.799Z,98468.28
2023-01-20T11:42:28.816Z,98465.75
2023-01-20T11:45:15.248Z,98463.22
2023-01-20T11:47:45.834Z,98464.91
2023-01-20T11:50:19.926Z,98470.84
2023-01-20T11:52:47.483Z,98475.09
2023-01-20T11:55:14.249Z,98471.69
2023-01-20T11:57:45.028Z,98476.75
2023-01-20T12:00:21.083Z,98480.16
2023-01-20T12:03:00.621Z,98486.91
2023-01-20T12:05:41.979Z,98491.16
2023-01-20T12:08:10.540Z,98495.38
2023-01-20T12:10:37.339Z,98497.06
2023-01-20T12:13:06.047Z,98497.91
2023-01-20T12:15:33.456Z,98512.28
2023-01-20T12:18:09.693Z,98513.97
2023-01-20T12:20:54.911Z,98519.06
2023-01-20T12:23:39.348Z,98518.22
2023-01-20T12:26:08.902Z,98516.50
2023-01-20T12:28:38.814Z,98517.34
2023-01-20T12:31:06.648Z,98508.91
2023-01-20T12:33:34.230Z,98506.38
2023-01-20T12:36:03.857Z,98504.66
2023-01-20T12:38:32.512Z,98506.38
2023-01-20T12:40:59.459Z,98501.28
2023-01-20T12:43:33.748Z,98506.38
2023-01-20T12:46:15.966Z,98505.53
2023-01-20T12:48:54.845Z,98513.13
2023-01-20T12:51:21.618Z,98507.19
2023-01-20T12:54:06.772Z,98508.06
2023-01-20T12:56:51.975Z,98496.22
2023-01-20T12:59:21.794Z,98502.13
2023-01-20T13:02:07.243Z,98495.38
2023-01-20T13:04:57.186Z,98500.44
2023-01-20T13:07:43.267Z,98510.59
2023-01-20T13:10:10.014Z,98512.28
2023-01-20T13:12:41.754Z,98513.13
2023-01-20T13:15:11.504Z,98513.13
2023-01-20T13:17:38.253Z,98506.38
2023-01-20T13:20:05.278Z,98508.06
2023-01-20T13:22:32.129Z,98508.94
2023-01-20T13:24:58.952Z,98515.66
2023-01-20T13:27:29.558Z,98511.44
2023-01-20T13:29:58.811Z,98511.47
2023-01-20T13:32:31.415Z,98511.47
2023-01-20T13:34:58.245Z,98507.22
2023-01-20T13:37:30.383Z,98505.53
2023-01-20T13:40:02.153Z,98508.06
2023-01-20T13:42:55.269Z,98512.28
2023-01-20T13:45:23.203Z,98507.22
2023-01-20T13:47:49.998Z,98505.53
2023-01-20T13:50:24.167Z,98502.16
2023-01-20T13:52:50.968Z,98508.06
2023-01-20T13:55:30.637Z,98505.53
2023-01-20T13:57:59.713Z,98509.75
2023-01-20T14:00:26.507Z,98506.38
2023-01-20T14:02:53.309Z,98508.94
2023-01-20T14:05:23.623Z,98519.06
2023-01-20T14:07:50.381Z,98509.75
2023-01-20T14:10:17.628Z,98516.53
2023-01-20T14:12:44.632Z,98518.22
2023-01-20T14:15:27.555Z,98524.16
2023-01-20T14:17:54.982Z,98517.38
2023-01-20T14:20:23.805Z,98512.28
2023-01-20T14:22:50.541Z,98515.66
2023-01-20T14:25:24.411Z,98517.38
2023-01-20T14:27:51.265Z,98522.44
2023-01-20T14:30:24.952Z,98519.06
2023-01-20T14:32:51.856Z,98521.59
2023-01-20T14:35:27.842Z,98525.81
2023-01-20T14:37:54.650Z,98524.16
2023-01-20T14:40:25.462Z,98529.22
2023-01-20T14:42:58.797Z,98531.75
2023-01-20T14:45:26.112Z,98533.44
2023-01-20T14:47:52.883Z,98534.28
2023-01-20T14:50:20.035Z,98537.63
2023-01-20T14:52:46.899Z,98539.34
2023-01-20T14:55:26.824Z,98541.03
2023-01-20T14:57:53.529Z,98545.25
2023-01-20T15:00:29.170Z,98533.44
2023-01-20T15:03:10.213Z,98540.16
2023-01-20T15:05:41.827Z,98542.72
2023-01-20T15:08:11.559Z,98544.41
2023-01-20T15:10:38.588Z,98535.97
2023-01-20T15:13:05.365Z,98541.88
2023-01-20T15:15:32.427Z,98542.72
2023-01-20T15:18:05.957Z,98554.56
2023-01-20T15:20:33.392Z,98557.09
2023-01-20T15:23:00.343Z,98557.94
2023-01-20T15:25:27.584Z,98553.69
2023-01-20T15:27:55.090Z,98557.91
2023-01-20T15:30:24.386Z,98562.16
2023-01-20T15:32:51.393Z,98567.25
2023-01-20T15:35:20.489Z,98570.59
2023-01-20T15:37:47.311Z,98571.44
2023-01-20T15:40:15.258Z,98572.31
2023-01-20T15:42:43.533Z,98571.44
2023-01-20T15:45:14.918Z,98578.22
2023-01-20T15:47:42.016Z,98579.94
2023-01-20T15:50:16.262Z,98588.38
2023-01-20T15:52:43.325Z,98593.44
2023-01-20T15:55:14.176Z,98595.94
2023-01-20T15:57:41.437Z,98601.06
2023-01-20T16:00:15.039Z,98607.81
2023-01-20T16:02:49.354Z,98615.44
2023-01-20T16:05:25.508Z,98606.97
2023-01-20T16:10:41.879Z,98610.38
2023-01-20T16:13:09.533Z,98613.72
2023-01-20T16:15:36.280Z,98608.66
2023-01-20T16:18:03.017Z,98611.19
2023-01-20T16:20:29.943Z,98610.38
2023-01-20T16:22:57.527Z,98611.19
2023-01-20T16:25:24.908Z,98614.56
2023-01-20T16:27:51.719Z,98618.81
2023-01-20T16:30:21.967Z,98621.38
2023-01-20T16:32:48.856Z,98625.59
2023-01-20T16:35:16.104Z,98634.88
2023-01-20T16:37:43.188Z,98639.97
2023-01-20T16:40:13.642Z,98634.88
2023-01-20T16:42:43.247Z,98642.53
2023-01-20T16:48:17.076Z,98645.91
2023-01-20T16:50:43.978Z,98649.28
2023-01-20T16:53:11.559Z,98646.75
2023-01-20T16:55:38.374Z,98648.44
2023-01-20T16:58:06.988Z,98648.44
2023-01-20T17:00:33.796Z,98649.28
2023-01-20T17:03:02.518Z,98652.69
2023-01-20T17:05:29.325Z,98657.75
2023-01-20T17:07:59.105Z,98657.75
2023-01-20T17:10:26.531Z,98661.97
2023-01-20T17:12:53.409Z,98654.31
2023-01-20T17:15:20.345Z,98649.28
2023-01-20T17:17:58.400Z,98656.88
2023-01-20T17:20:26.378Z,98658.59
2023-01-20T17:22:55.565Z,98650.97
2023-01-20T17:25:22.346Z,98656.06
2023-01-20T17:27:49.194Z,98659.41
2023-01-20T17:30:16.583Z,98661.97
2023-01-20T17:32:47.529Z,98672.09
2023-01-20T17:35:14.895Z,98666.22
2023-01-20T17:37:42.632Z,98659.41
2023-01-20T17:40:17.254Z,98665.34
2023-01-20T17:42:44.723Z,98667.06
2023-01-20T17:45:11.759Z,98661.97
2023-01-20T17:47:39.957Z,98670.44
2023-01-20T17:50:06.938Z,98667.91
2023-01-20T17:52:33.719Z,98663.69
2023-01-20T17:55:00.767Z,98667.06
2023-01-20T17:57:30.777Z,98666.22
2023-01-20T17:59:57.546Z,98666.22
2023-01-20T18:02:24.488Z,98659.41
2023-01-20T18:04:51.325Z,98661.97
2023-01-20T18:07:18.136Z,98656.88
2023-01-20T18:09:46.187Z,98653.53
2023-01-20T18:12:13.526Z,98655.22
2023-01-20T18:14:40.345Z,98656.88
2023-01-20T18:17:09.322Z,98656.88
2023-01-20T18:19:36.237Z,98656.88
2023-01-20T18:22:07.062Z,98653.53
2023-01-20T18:24:34.418Z,98655.22
2023-01-20T18:27:01.320Z,98653.53
2023-01-20T18:29:30.311Z,98647.59
2023-01-20T18:31:58.275Z,98654.34
2023-01-20T18:34:25.423Z,98657.75
2023-01-20T18:36:52.235Z,98654.34
2023-01-20T18:39:19.037Z,98652.69
2023-01-20T18:41:45.905Z,98657.75
2023-01-20T18:44:12.738Z,98651.81
2023-01-20T18:46:41.603Z,98651.00
2023-01-20T18:49:09.777Z,98645.06
2023-01-20T18:51:36.684Z,98643.41
2023-01-20T18:54:14.825Z,98650.13
2023-01-20T18:56:41.601Z,98636.59
2023-01-20T18:59:08.528Z,98644.19
2023-01-20T19:01:36.181Z,98645.06
2023-01-20T19:04:03.382Z,98633.25
2023-01-20T19:06:30.959Z,98626.44
2023-01-20T19:08:58.444Z,98627.31
2023-01-20T19:11:26.229Z,98621.38
2023-01-20T19:13:53.705Z,98620.53
2023-01-20T19:16:22.204Z,98614.59
2023-01-20T19:18:53.064Z,98618.03
2023-01-20T19:21:19.919Z,98616.28
2023-01-20T19:23:50.288Z,98615.47
2023-01-20T19:26:20.205Z,98622.22
2023-01-20T19:28:47.536Z,98619.66
2023-01-20T19:31:15.274Z,98619.69
2023-01-20T19:39:48.612Z,98604.44
2023-01-20T21:58:07.618Z,98636.53
2023-01-20T22:00:36.855Z,98645.00
2023-01-20T22:51:59.876Z,98673.78
2023-01-20T23:03:45.482Z,98660.25
2023-01-20T23:15:17.131Z,98655.16
2023-01-20T23:21:22.960Z,98661.94
2023-01-20T23:34:05.397Z,98667.00
2023-01-20T23:36:59.559Z,98678.84
2023-01-20T23:39:44.622Z,98671.25
2023-01-20T23:42:18.749Z,98678.84
2023-01-20T23:44:49.204Z,98665.31
2023-01-20T23:47:25.416Z,98670.38
2023-01-20T23:49:54.918Z,98676.31
2023-01-20T23:52:32.759Z,98678.00
2023-01-20T23:55:11.497Z,98679.69
2023-01-20T23:57:41.226Z,98676.31
